Java Center, New York
Current Conditions -  °F | °C
As of 3:54 AM on Wednesday 22 Oct 2014 (Local Time) from KBUF Reporting Station
Overcast Overcast  
Wind Chill: 41°   Ceiling: 1400
Heat Index: 45°   Visibility: 10mi
Dew Point: 41°   Wind: 7mph
Humidity: 86%   Direction: 360°N
Pressure: 30.12"   Gusts: NA
Location:  42.65°N, 78.39°W
Report Text: KBUF 220754Z 36006KT 10SM OVC014 07/05 A3012 RMK AO2 DZE05 SLP203 P0000 T00720050
Loading
Personal Weather Stations






























Interactive Weather Map
Tropical Storm Tracking
New forecast layout! Learn more

10-Day Weather Forecast

Advertisements
Track Severe Weather on mobile